sensor_id;sensor_type;location;lat;lon;timestamp;noise_LAeq;noise_LA_min;noise_LA_max;noise_LA01;noise_LA95
76382;Laerm;65202;52.520;10.528;2022-11-20T00:01:28;35.17;31.46;43.12;;
76382;Laerm;65202;52.520;10.528;2022-11-20T00:03:57;35.09;31.84;41.90;;
76382;Laerm;65202;52.520;10.528;2022-11-20T00:06:26;35.21;31.73;42.46;;
76382;Laerm;65202;52.520;10.528;2022-11-20T00:08:57;35.05;31.81;46.93;;
76382;Laerm;65202;52.520;10.528;2022-11-20T00:11:27;34.65;31.17;46.86;;
76382;Laerm;65202;52.520;10.528;2022-11-20T00:13:58;34.75;31.56;43.26;;
76382;Laerm;65202;52.520;10.528;2022-11-20T00:16:29;34.78;31.29;43.63;;
76382;Laerm;65202;52.520;10.528;2022-11-20T00:18:57;34.98;31.31;42.86;;
76382;Laerm;65202;52.520;10.528;2022-11-20T00:21:29;34.87;31.13;42.58;;
76382;Laerm;65202;52.520;10.528;2022-11-20T00:23:57;34.78;31.32;44.29;;
76382;Laerm;65202;52.520;10.528;2022-11-20T00:26:27;35.78;32.09;43.80;;
76382;Laerm;65202;52.520;10.528;2022-11-20T00:29:00;34.30;31.20;42.78;;
76382;Laerm;65202;52.520;10.528;2022-11-20T00:31:29;35.00;31.56;43.72;;
76382;Laerm;65202;52.520;10.528;2022-11-20T00:33:56;35.78;31.85;43.93;;
76382;Laerm;65202;52.520;10.528;2022-11-20T00:36:28;35.21;31.91;43.42;;
76382;Laerm;65202;52.520;10.528;2022-11-20T00:38:57;34.78;31.47;43.71;;
76382;Laerm;65202;52.520;10.528;2022-11-20T00:41:27;35.07;31.60;44.47;;
76382;Laerm;65202;52.520;10.528;2022-11-20T00:43:56;34.83;31.50;41.87;;
76382;Laerm;65202;52.520;10.528;2022-11-20T00:46:26;35.90;32.13;49.65;;
76382;Laerm;65202;52.520;10.528;2022-11-20T00:48:54;36.07;31.37;46.90;;
76382;Laerm;65202;52.520;10.528;2022-11-20T00:51:24;34.71;31.50;44.95;;
76382;Laerm;65202;52.520;10.528;2022-11-20T00:53:56;35.45;31.77;43.29;;
76382;Laerm;65202;52.520;10.528;2022-11-20T00:56:24;35.66;31.96;48.85;;
76382;Laerm;65202;52.520;10.528;2022-11-20T00:58:52;35.42;31.56;43.84;;
76382;Laerm;65202;52.520;10.528;2022-11-20T01:01:25;35.23;31.48;45.24;;
76382;Laerm;65202;52.520;10.528;2022-11-20T01:03:57;34.97;31.40;42.79;;
76382;Laerm;65202;52.520;10.528;2022-11-20T01:06:37;35.08;31.68;43.30;;
76382;Laerm;65202;52.520;10.528;2022-11-20T01:09:11;36.26;31.48;49.26;;
76382;Laerm;65202;52.520;10.528;2022-11-20T01:11:42;34.85;31.67;42.77;;
76382;Laerm;65202;52.520;10.528;2022-11-20T01:14:17;34.66;31.18;44.83;;
76382;Laerm;65202;52.520;10.528;2022-11-20T01:16:49;34.66;31.29;42.11;;
76382;Laerm;65202;52.520;10.528;2022-11-20T01:19:22;34.23;31.13;43.51;;
76382;Laerm;65202;52.520;10.528;2022-11-20T01:21:53;34.24;30.83;42.66;;
76382;Laerm;65202;52.520;10.528;2022-11-20T01:24:22;34.55;31.11;42.57;;
76382;Laerm;65202;52.520;10.528;2022-11-20T01:26:51;34.44;31.11;43.26;;
76382;Laerm;65202;52.520;10.528;2022-11-20T01:29:23;34.68;31.44;43.08;;
76382;Laerm;65202;52.520;10.528;2022-11-20T01:31:52;34.46;31.32;42.34;;
76382;Laerm;65202;52.520;10.528;2022-11-20T01:34:21;34.31;31.02;42.25;;
76382;Laerm;65202;52.520;10.528;2022-11-20T01:36:50;35.00;30.99;53.93;;
76382;Laerm;65202;52.520;10.528;2022-11-20T01:39:22;34.32;31.20;43.46;;
76382;Laerm;65202;52.520;10.528;2022-11-20T01:41:53;34.55;31.20;42.11;;
76382;Laerm;65202;52.520;10.528;2022-11-20T01:44:51;34.58;31.59;43.25;;
76382;Laerm;65202;52.520;10.528;2022-11-20T01:47:33;34.63;31.22;42.26;;
76382;Laerm;65202;52.520;10.528;2022-11-20T01:50:24;34.30;31.45;45.14;;
76382;Laerm;65202;52.520;10.528;2022-11-20T01:53:01;34.58;31.23;42.12;;
76382;Laerm;65202;52.520;10.528;2022-11-20T01:55:37;34.88;31.54;43.90;;
76382;Laerm;65202;52.520;10.528;2022-11-20T01:58:06;34.45;31.18;44.22;;
76382;Laerm;65202;52.520;10.528;2022-11-20T02:00:34;36.30;31.59;43.65;;
76382;Laerm;65202;52.520;10.528;2022-11-20T02:03:09;35.31;31.49;42.00;;
76382;Laerm;65202;52.520;10.528;2022-11-20T02:08:49;34.89;31.95;42.21;;
76382;Laerm;65202;52.520;10.528;2022-11-20T02:11:16;34.33;31.21;42.01;;
76382;Laerm;65202;52.520;10.528;2022-11-20T02:13:44;33.93;30.75;42.46;;
76382;Laerm;65202;52.520;10.528;2022-11-20T02:16:21;33.97;30.93;43.55;;
76382;Laerm;65202;52.520;10.528;2022-11-20T02:18:51;34.46;30.85;43.82;;
76382;Laerm;65202;52.520;10.528;2022-11-20T02:21:27;34.53;31.33;43.02;;
76382;Laerm;65202;52.520;10.528;2022-11-20T02:24:15;34.56;31.12;42.83;;
76382;Laerm;65202;52.520;10.528;2022-11-20T02:27:00;36.65;31.35;47.50;;
76382;Laerm;65202;52.520;10.528;2022-11-20T02:29:34;37.16;31.34;46.32;;
76382;Laerm;65202;52.520;10.528;2022-11-20T02:32:03;36.28;31.29;46.39;;
76382;Laerm;65202;52.520;10.528;2022-11-20T02:34:31;34.90;31.36;43.22;;
76382;Laerm;65202;52.520;10.528;2022-11-20T02:36:59;34.30;31.14;42.88;;
76382;Laerm;65202;52.520;10.528;2022-11-20T02:39:28;34.55;31.22;46.79;;
76382;Laerm;65202;52.520;10.528;2022-11-20T02:41:56;34.74;31.26;41.57;;
76382;Laerm;65202;52.520;10.528;2022-11-20T02:44:24;34.33;31.24;42.72;;
76382;Laerm;65202;52.520;10.528;2022-11-20T02:46:51;34.25;30.71;42.32;;
76382;Laerm;65202;52.520;10.528;2022-11-20T02:49:18;34.38;31.11;43.68;;
76382;Laerm;65202;52.520;10.528;2022-11-20T02:51:46;34.11;30.95;42.33;;
76382;Laerm;65202;52.520;10.528;2022-11-20T02:54:13;34.57;31.04;43.46;;
76382;Laerm;65202;52.520;10.528;2022-11-20T02:56:40;35.46;31.74;42.76;;
76382;Laerm;65202;52.520;10.528;2022-11-20T02:59:08;34.69;31.42;43.76;;
76382;Laerm;65202;52.520;10.528;2022-11-20T03:01:36;34.83;31.43;42.88;;
76382;Laerm;65202;52.520;10.528;2022-11-20T03:04:03;35.93;31.81;44.83;;
76382;Laerm;65202;52.520;10.528;2022-11-20T03:06:31;36.79;31.52;49.63;;
76382;Laerm;65202;52.520;10.528;2022-11-20T03:08:58;34.61;31.42;43.60;;
76382;Laerm;65202;52.520;10.528;2022-11-20T03:11:26;34.55;31.32;43.32;;
76382;Laerm;65202;52.520;10.528;2022-11-20T03:13:53;34.62;31.49;42.08;;
76382;Laerm;65202;52.520;10.528;2022-11-20T03:16:22;34.49;31.29;45.52;;
76382;Laerm;65202;52.520;10.528;2022-11-20T03:18:52;34.40;31.23;43.08;;
76382;Laerm;65202;52.520;10.528;2022-11-20T03:21:19;34.10;30.97;42.56;;
76382;Laerm;65202;52.520;10.528;2022-11-20T03:23:47;34.04;31.06;42.09;;
76382;Laerm;65202;52.520;10.528;2022-11-20T03:26:18;34.07;31.02;42.27;;
76382;Laerm;65202;52.520;10.528;2022-11-20T03:28:49;33.98;30.96;42.64;;
76382;Laerm;65202;52.520;10.528;2022-11-20T03:31:25;34.03;31.03;42.10;;
76382;Laerm;65202;52.520;10.528;2022-11-20T03:33:52;33.98;30.81;41.78;;
76382;Laerm;65202;52.520;10.528;2022-11-20T03:36:21;34.50;30.73;43.44;;
76382;Laerm;65202;52.520;10.528;2022-11-20T03:38:48;37.91;31.30;57.71;;
76382;Laerm;65202;52.520;10.528;2022-11-20T03:41:23;34.70;31.38;49.11;;
76382;Laerm;65202;52.520;10.528;2022-11-20T03:44:00;34.27;31.14;42.14;;
76382;Laerm;65202;52.520;10.528;2022-11-20T03:46:28;35.03;31.32;43.48;;
76382;Laerm;65202;52.520;10.528;2022-11-20T03:48:56;34.40;31.09;43.46;;
76382;Laerm;65202;52.520;10.528;2022-11-20T03:51:30;34.10;31.01;45.39;;
76382;Laerm;65202;52.520;10.528;2022-11-20T03:54:11;34.66;31.14;45.96;;
76382;Laerm;65202;52.520;10.528;2022-11-20T03:56:38;35.06;31.15;46.19;;
76382;Laerm;65202;52.520;10.528;2022-11-20T03:59:06;43.54;31.04;59.66;;
76382;Laerm;65202;52.520;10.528;2022-11-20T04:01:36;34.74;31.28;44.08;;
76382;Laerm;65202;52.520;10.528;2022-11-20T04:04:05;34.70;30.94;46.17;;
76382;Laerm;65202;52.520;10.528;2022-11-20T04:06:37;35.21;32.02;44.97;;
76382;Laerm;65202;52.520;10.528;2022-11-20T04:09:05;34.80;31.79;43.37;;
76382;Laerm;65202;52.520;10.528;2022-11-20T04:11:36;34.62;31.65;43.88;;
76382;Laerm;65202;52.520;10.528;2022-11-20T04:14:11;34.70;31.78;43.41;;
76382;Laerm;65202;52.520;10.528;2022-11-20T04:16:39;34.52;31.36;43.47;;
76382;Laerm;65202;52.520;10.528;2022-11-20T04:19:13;34.41;31.27;42.97;;
76382;Laerm;65202;52.520;10.528;2022-11-20T04:21:42;34.75;31.40;42.33;;
76382;Laerm;65202;52.520;10.528;2022-11-20T04:24:10;34.59;31.08;42.49;;
76382;Laerm;65202;52.520;10.528;2022-11-20T04:26:38;35.45;32.17;44.84;;
76382;Laerm;65202;52.520;10.528;2022-11-20T04:29:06;34.54;31.35;43.49;;
76382;Laerm;65202;52.520;10.528;2022-11-20T04:31:34;34.40;31.26;41.99;;
76382;Laerm;65202;52.520;10.528;2022-11-20T04:34:04;34.56;31.36;43.62;;
76382;Laerm;65202;52.520;10.528;2022-11-20T04:36:33;34.28;31.20;42.43;;
76382;Laerm;65202;52.520;10.528;2022-11-20T04:39:04;34.58;31.17;42.75;;
76382;Laerm;65202;52.520;10.528;2022-11-20T04:41:35;34.28;31.15;43.96;;
76382;Laerm;65202;52.520;10.528;2022-11-20T04:44:05;34.30;30.95;43.88;;
76382;Laerm;65202;52.520;10.528;2022-11-20T04:46:41;34.42;31.30;42.46;;
76382;Laerm;65202;52.520;10.528;2022-11-20T04:49:11;34.68;31.40;44.29;;
76382;Laerm;65202;52.520;10.528;2022-11-20T04:51:38;34.24;31.12;42.87;;
76382;Laerm;65202;52.520;10.528;2022-11-20T04:54:05;34.69;31.64;43.99;;
76382;Laerm;65202;52.520;10.528;2022-11-20T04:56:32;34.43;31.10;42.90;;
76382;Laerm;65202;52.520;10.528;2022-11-20T04:59:01;34.18;31.10;43.38;;
76382;Laerm;65202;52.520;10.528;2022-11-20T05:01:29;35.00;31.30;50.00;;
76382;Laerm;65202;52.520;10.528;2022-11-20T05:03:56;35.16;31.72;43.43;;
76382;Laerm;65202;52.520;10.528;2022-11-20T05:06:24;34.56;31.31;42.53;;
76382;Laerm;65202;52.520;10.528;2022-11-20T05:08:51;34.52;31.06;42.52;;
76382;Laerm;65202;52.520;10.528;2022-11-20T05:11:20;34.59;31.31;42.81;;
76382;Laerm;65202;52.520;10.528;2022-11-20T05:13:49;34.89;31.55;42.44;;
76382;Laerm;65202;52.520;10.528;2022-11-20T05:16:23;35.05;31.88;42.59;;
76382;Laerm;65202;52.520;10.528;2022-11-20T05:18:53;34.92;31.46;43.15;;
76382;Laerm;65202;52.520;10.528;2022-11-20T05:21:21;34.42;31.25;42.76;;
76382;Laerm;65202;52.520;10.528;2022-11-20T05:23:49;34.56;31.37;42.79;;
76382;Laerm;65202;52.520;10.528;2022-11-20T05:26:20;34.39;31.28;43.54;;
76382;Laerm;65202;52.520;10.528;2022-11-20T05:28:50;34.16;31.45;41.98;;
76382;Laerm;65202;52.520;10.528;2022-11-20T05:31:21;34.73;31.57;43.86;;
76382;Laerm;65202;52.520;10.528;2022-11-20T05:33:56;34.87;31.32;44.52;;
76382;Laerm;65202;52.520;10.528;2022-11-20T05:36:24;35.25;31.79;43.00;;
76382;Laerm;65202;52.520;10.528;2022-11-20T05:38:51;35.30;31.68;43.94;;
76382;Laerm;65202;52.520;10.528;2022-11-20T05:41:24;35.72;32.01;43.71;;
76382;Laerm;65202;52.520;10.528;2022-11-20T05:43:51;35.05;31.67;45.62;;
76382;Laerm;65202;52.520;10.528;2022-11-20T05:46:20;35.45;31.40;56.17;;
76382;Laerm;65202;52.520;10.528;2022-11-20T05:48:55;34.61;31.23;44.28;;
76382;Laerm;65202;52.520;10.528;2022-11-20T05:51:24;35.17;31.79;43.22;;
76382;Laerm;65202;52.520;10.528;2022-11-20T05:53:51;34.99;31.50;43.67;;
76382;Laerm;65202;52.520;10.528;2022-11-20T05:56:21;34.75;31.32;43.09;;
76382;Laerm;65202;52.520;10.528;2022-11-20T05:58:49;34.51;31.48;41.59;;
76382;Laerm;65202;52.520;10.528;2022-11-20T06:01:23;34.77;31.55;42.15;;
76382;Laerm;65202;52.520;10.528;2022-11-20T06:03:53;34.71;31.40;44.55;;
76382;Laerm;65202;52.520;10.528;2022-11-20T06:06:21;34.73;31.48;43.27;;
76382;Laerm;65202;52.520;10.528;2022-11-20T06:08:49;34.60;31.25;43.81;;
76382;Laerm;65202;52.520;10.528;2022-11-20T06:11:17;36.10;31.61;56.59;;
76382;Laerm;65202;52.520;10.528;2022-11-20T06:13:45;39.27;31.67;57.41;;
76382;Laerm;65202;52.520;10.528;2022-11-20T06:16:17;41.25;32.19;60.64;;
76382;Laerm;65202;52.520;10.528;2022-11-20T06:18:46;43.18;32.10;62.22;;
76382;Laerm;65202;52.520;10.528;2022-11-20T06:21:17;36.71;31.37;57.12;;
76382;Laerm;65202;52.520;10.528;2022-11-20T06:23:45;38.87;31.94;62.56;;
76382;Laerm;65202;52.520;10.528;2022-11-20T06:26:22;37.17;31.55;56.93;;
76382;Laerm;65202;52.520;10.528;2022-11-20T06:28:50;36.21;31.56;53.78;;
76382;Laerm;65202;52.520;10.528;2022-11-20T06:31:20;36.10;32.23;47.51;;
76382;Laerm;65202;52.520;10.528;2022-11-20T06:33:48;34.98;31.25;43.11;;
76382;Laerm;65202;52.520;10.528;2022-11-20T06:36:19;36.55;31.80;55.64;;
76382;Laerm;65202;52.520;10.528;2022-11-20T06:38:47;44.36;32.16;62.33;;
76382;Laerm;65202;52.520;10.528;2022-11-20T06:41:18;42.74;31.89;62.13;;
76382;Laerm;65202;52.520;10.528;2022-11-20T06:43:46;35.96;31.63;54.63;;
76382;Laerm;65202;52.520;10.528;2022-11-20T06:46:15;35.56;32.17;45.21;;
76382;Laerm;65202;52.520;10.528;2022-11-20T06:48:46;42.88;31.90;67.30;;
76382;Laerm;65202;52.520;10.528;2022-11-20T06:51:13;35.89;31.62;51.37;;
76382;Laerm;65202;52.520;10.528;2022-11-20T06:53:41;35.24;31.60;44.52;;
76382;Laerm;65202;52.520;10.528;2022-11-20T06:56:08;36.45;31.43;54.53;;
76382;Laerm;65202;52.520;10.528;2022-11-20T06:58:36;35.27;32.02;44.86;;
76382;Laerm;65202;52.520;10.528;2022-11-20T07:01:10;35.01;31.77;43.39;;
76382;Laerm;65202;52.520;10.528;2022-11-20T07:03:39;37.67;32.01;49.34;;
76382;Laerm;65202;52.520;10.528;2022-11-20T07:06:08;41.24;32.32;55.16;;
76382;Laerm;65202;52.520;10.528;2022-11-20T07:08:35;39.86;32.91;54.99;;
76382;Laerm;65202;52.520;10.528;2022-11-20T07:11:06;39.81;31.51;57.06;;
76382;Laerm;65202;52.520;10.528;2022-11-20T07:13:33;37.20;31.95;56.80;;
76382;Laerm;65202;52.520;10.528;2022-11-20T07:16:06;35.64;31.78;46.73;;
76382;Laerm;65202;52.520;10.528;2022-11-20T07:18:34;35.67;32.63;44.80;;
76382;Laerm;65202;52.520;10.528;2022-11-20T07:21:05;41.06;32.14;54.61;;
76382;Laerm;65202;52.520;10.528;2022-11-20T07:23:33;36.58;32.63;49.97;;
76382;Laerm;65202;52.520;10.528;2022-11-20T07:26:10;35.73;31.80;49.33;;
76382;Laerm;65202;52.520;10.528;2022-11-20T07:28:38;41.58;32.41;56.33;;
76382;Laerm;65202;52.520;10.528;2022-11-20T07:31:05;38.98;32.16;62.70;;
76382;Laerm;65202;52.520;10.528;2022-11-20T07:33:33;46.73;33.00;74.44;;
76382;Laerm;65202;52.520;10.528;2022-11-20T07:36:01;52.58;32.43;79.60;;
76382;Laerm;65202;52.520;10.528;2022-11-20T07:38:29;56.74;33.15;81.58;;
76382;Laerm;65202;52.520;10.528;2022-11-20T07:40:57;41.93;32.64;73.16;;
76382;Laerm;65202;52.520;10.528;2022-11-20T07:43:24;39.30;32.53;56.30;;
76382;Laerm;65202;52.520;10.528;2022-11-20T07:45:55;38.66;33.04;54.27;;
76382;Laerm;65202;52.520;10.528;2022-11-20T07:48:24;40.17;32.90;59.67;;
76382;Laerm;65202;52.520;10.528;2022-11-20T07:50:56;46.35;34.07;68.16;;
76382;Laerm;65202;52.520;10.528;2022-11-20T07:53:26;57.37;34.98;71.22;;
76382;Laerm;65202;52.520;10.528;2022-11-20T07:55:53;47.86;34.48;67.66;;
76382;Laerm;65202;52.520;10.528;2022-11-20T07:58:21;46.08;34.75;63.17;;
76382;Laerm;65202;52.520;10.528;2022-11-20T08:00:48;39.48;34.70;52.94;;
76382;Laerm;65202;52.520;10.528;2022-11-20T08:03:16;38.95;33.71;52.95;;
76382;Laerm;65202;52.520;10.528;2022-11-20T08:05:51;43.22;34.09;63.28;;
76382;Laerm;65202;52.520;10.528;2022-11-20T08:08:18;43.39;32.90;57.31;;
76382;Laerm;65202;52.520;10.528;2022-11-20T08:10:45;39.08;33.90;55.92;;
76382;Laerm;65202;52.520;10.528;2022-11-20T08:13:13;47.10;33.66;66.18;;
76382;Laerm;65202;52.520;10.528;2022-11-20T08:15:59;39.35;34.22;56.06;;
76382;Laerm;65202;52.520;10.528;2022-11-20T08:18:26;41.74;33.90;55.00;;
76382;Laerm;65202;52.520;10.528;2022-11-20T08:21:03;41.44;34.01;56.28;;
76382;Laerm;65202;52.520;10.528;2022-11-20T08:23:31;42.35;34.90;54.58;;
76382;Laerm;65202;52.520;10.528;2022-11-20T08:25:58;46.38;34.73;62.40;;
76382;Laerm;65202;52.520;10.528;2022-11-20T08:28:25;45.53;34.12;61.65;;
76382;Laerm;65202;52.520;10.528;2022-11-20T08:31:01;45.01;34.28;62.23;;
76382;Laerm;65202;52.520;10.528;2022-11-20T08:33:29;45.23;35.33;62.76;;
76382;Laerm;65202;52.520;10.528;2022-11-20T08:36:03;39.62;35.36;55.29;;
76382;Laerm;65202;52.520;10.528;2022-11-20T08:38:31;42.16;34.26;66.00;;
76382;Laerm;65202;52.520;10.528;2022-11-20T08:41:00;42.65;35.09;60.58;;
76382;Laerm;65202;52.520;10.528;2022-11-20T08:43:47;47.63;34.75;65.88;;
76382;Laerm;65202;52.520;10.528;2022-11-20T08:46:14;38.94;34.25;50.64;;
76382;Laerm;65202;52.520;10.528;2022-11-20T08:48:42;39.17;35.14;59.58;;
76382;Laerm;65202;52.520;10.528;2022-11-20T08:51:10;44.18;34.59;63.43;;
76382;Laerm;65202;52.520;10.528;2022-11-20T08:53:38;43.04;35.16;60.62;;
76382;Laerm;65202;52.520;10.528;2022-11-20T08:56:06;37.80;34.49;47.24;;
76382;Laerm;65202;52.520;10.528;2022-11-20T08:58:33;43.11;35.49;52.69;;
76382;Laerm;65202;52.520;10.528;2022-11-20T09:01:22;38.24;33.31;49.62;;
76382;Laerm;65202;52.520;10.528;2022-11-20T09:03:55;45.57;33.73;63.84;;
76382;Laerm;65202;52.520;10.528;2022-11-20T09:06:23;38.36;34.55;55.22;;
76382;Laerm;65202;52.520;10.528;2022-11-20T09:08:54;37.95;34.09;46.26;;
76382;Laerm;65202;52.520;10.528;2022-11-20T09:11:21;46.60;34.36;62.36;;
76382;Laerm;65202;52.520;10.528;2022-11-20T09:13:49;41.49;33.43;57.23;;
76382;Laerm;65202;52.520;10.528;2022-11-20T09:16:16;45.20;34.24;64.04;;
76382;Laerm;65202;52.520;10.528;2022-11-20T09:18:43;40.26;34.72;51.34;;
76382;Laerm;65202;52.520;10.528;2022-11-20T09:21:13;40.06;35.10;52.84;;
76382;Laerm;65202;52.520;10.528;2022-11-20T09:23:41;39.35;34.46;54.55;;
76382;Laerm;65202;52.520;10.528;2022-11-20T09:26:13;38.08;33.98;50.05;;
76382;Laerm;65202;52.520;10.528;2022-11-20T09:28:41;37.22;33.75;44.33;;
76382;Laerm;65202;52.520;10.528;2022-11-20T09:31:24;47.81;33.68;64.16;;
76382;Laerm;65202;52.520;10.528;2022-11-20T09:33:52;44.15;34.34;56.25;;
76382;Laerm;65202;52.520;10.528;2022-11-20T09:36:20;40.83;34.17;58.49;;
76382;Laerm;65202;52.520;10.528;2022-11-20T09:38:48;39.65;34.00;52.79;;
76382;Laerm;65202;52.520;10.528;2022-11-20T09:41:42;40.28;34.83;57.36;;
76382;Laerm;65202;52.520;10.528;2022-11-20T09:44:50;41.57;34.36;58.54;;
76382;Laerm;65202;52.520;10.528;2022-11-20T09:47:37;38.43;34.38;58.71;;
76382;Laerm;65202;52.520;10.528;2022-11-20T09:56:25;40.67;33.78;52.72;;
76382;Laerm;65202;52.520;10.528;2022-11-20T09:58:57;38.93;34.81;53.99;;
76382;Laerm;65202;52.520;10.528;2022-11-20T10:01:32;42.10;33.87;57.75;;
76382;Laerm;65202;52.520;10.528;2022-11-20T10:04:04;39.07;33.80;48.19;;
76382;Laerm;65202;52.520;10.528;2022-11-20T10:07:08;40.01;34.83;53.65;;
76382;Laerm;65202;52.520;10.528;2022-11-20T10:10:00;41.81;35.32;56.42;;
76382;Laerm;65202;52.520;10.528;2022-11-20T10:13:48;42.58;36.38;66.63;;
76382;Laerm;65202;52.520;10.528;2022-11-20T10:16:16;39.51;35.08;54.61;;
76382;Laerm;65202;52.520;10.528;2022-11-20T10:18:58;41.19;35.17;60.54;;
76382;Laerm;65202;52.520;10.528;2022-11-20T10:25:12;46.03;34.57;64.28;;
76382;Laerm;65202;52.520;10.528;2022-11-20T10:30:40;44.37;34.97;59.93;;
76382;Laerm;65202;52.520;10.528;2022-11-20T10:33:27;41.47;34.74;61.45;;
76382;Laerm;65202;52.520;10.528;2022-11-20T10:36:26;47.33;35.66;61.59;;
76382;Laerm;65202;52.520;10.528;2022-11-20T10:39:06;47.88;35.74;64.81;;
76382;Laerm;65202;52.520;10.528;2022-11-20T10:41:41;40.25;35.37;56.73;;
76382;Laerm;65202;52.520;10.528;2022-11-20T10:44:20;46.51;35.17;61.55;;
76382;Laerm;65202;52.520;10.528;2022-11-20T10:47:25;41.07;34.56;52.56;;
76382;Laerm;65202;52.520;10.528;2022-11-20T10:49:57;38.04;33.71;45.13;;
76382;Laerm;65202;52.520;10.528;2022-11-20T10:52:45;43.89;35.89;56.83;;
76382;Laerm;65202;52.520;10.528;2022-11-20T10:58:13;40.13;35.14;62.35;;
76382;Laerm;65202;52.520;10.528;2022-11-20T11:00:43;39.56;36.19;46.45;;
76382;Laerm;65202;52.520;10.528;2022-11-20T11:03:24;43.58;35.78;60.27;;
76382;Laerm;65202;52.520;10.528;2022-11-20T11:06:06;46.00;36.44;56.45;;
76382;Laerm;65202;52.520;10.528;2022-11-20T11:08:38;40.55;35.78;53.75;;
76382;Laerm;65202;52.520;10.528;2022-11-20T11:11:26;41.15;37.11;52.00;;
76382;Laerm;65202;52.520;10.528;2022-11-20T11:14:15;44.20;37.58;68.18;;
76382;Laerm;65202;52.520;10.528;2022-11-20T11:16:50;42.99;36.57;53.59;;
76382;Laerm;65202;52.520;10.528;2022-11-20T11:19:18;39.91;36.30;48.55;;
76382;Laerm;65202;52.520;10.528;2022-11-20T11:21:54;43.01;36.99;57.89;;
76382;Laerm;65202;52.520;10.528;2022-11-20T11:24:28;39.02;35.69;47.10;;
76382;Laerm;65202;52.520;10.528;2022-11-20T11:27:14;39.83;35.56;48.20;;
76382;Laerm;65202;52.520;10.528;2022-11-20T11:29:48;40.89;36.40;61.88;;
76382;Laerm;65202;52.520;10.528;2022-11-20T11:32:19;39.80;35.85;45.85;;
76382;Laerm;65202;52.520;10.528;2022-11-20T11:35:02;42.13;36.59;60.74;;
76382;Laerm;65202;52.520;10.528;2022-11-20T11:37:36;44.79;36.09;60.29;;
76382;Laerm;65202;52.520;10.528;2022-11-20T11:40:10;46.20;36.45;67.31;;
76382;Laerm;65202;52.520;10.528;2022-11-20T11:42:58;43.86;35.54;66.45;;
76382;Laerm;65202;52.520;10.528;2022-11-20T11:45:26;42.31;35.52;52.84;;
76382;Laerm;65202;52.520;10.528;2022-11-20T11:47:57;46.48;37.27;62.41;;
76382;Laerm;65202;52.520;10.528;2022-11-20T11:50:29;42.56;38.27;66.96;;
76382;Laerm;65202;52.520;10.528;2022-11-20T11:53:18;48.64;37.11;65.39;;
76382;Laerm;65202;52.520;10.528;2022-11-20T11:56:02;47.35;35.15;69.07;;
76382;Laerm;65202;52.520;10.528;2022-11-20T11:58:47;46.74;34.77;60.12;;
76382;Laerm;65202;52.520;10.528;2022-11-20T12:04:40;44.66;34.35;68.33;;
76382;Laerm;65202;52.520;10.528;2022-11-20T12:07:41;39.81;34.68;57.41;;
76382;Laerm;65202;52.520;10.528;2022-11-20T12:10:57;39.03;34.49;57.55;;
76382;Laerm;65202;52.520;10.528;2022-11-20T12:13:45;38.65;34.72;49.96;;
76382;Laerm;65202;52.520;10.528;2022-11-20T12:16:17;45.70;34.70;63.52;;
76382;Laerm;65202;52.520;10.528;2022-11-20T12:18:52;43.92;34.11;64.60;;
76382;Laerm;65202;52.520;10.528;2022-11-20T12:30:18;38.14;33.76;46.63;;
76382;Laerm;65202;52.520;10.528;2022-11-20T12:35:47;40.63;34.75;57.42;;
76382;Laerm;65202;52.520;10.528;2022-11-20T12:43:32;39.52;34.67;55.28;;
76382;Laerm;65202;52.520;10.528;2022-11-20T12:46:50;39.26;34.07;55.11;;
76382;Laerm;65202;52.520;10.528;2022-11-20T12:49:52;41.94;34.73;55.03;;
76382;Laerm;65202;52.520;10.528;2022-11-20T12:55:47;38.49;34.09;54.39;;
76382;Laerm;65202;52.520;10.528;2022-11-20T13:01:32;48.11;34.03;62.08;;
76382;Laerm;65202;52.520;10.528;2022-11-20T13:05:13;40.03;33.88;58.74;;
76382;Laerm;65202;52.520;10.528;2022-11-20T13:07:17;48.24;34.26;61.98;;
76382;Laerm;65202;52.520;10.528;2022-11-20T13:09:48;45.45;34.44;62.81;;
76382;Laerm;65202;52.520;10.528;2022-11-20T13:12:28;39.00;33.25;51.13;;
76382;Laerm;65202;52.520;10.528;2022-11-20T13:18:07;45.80;34.79;59.92;;
76382;Laerm;65202;52.520;10.528;2022-11-20T13:20:41;45.77;34.38;61.80;;
76382;Laerm;65202;52.520;10.528;2022-11-20T13:23:09;37.14;33.67;44.98;;
76382;Laerm;65202;52.520;10.528;2022-11-20T13:25:39;43.19;33.83;58.14;;
76382;Laerm;65202;52.520;10.528;2022-11-20T13:30:52;41.99;33.98;64.35;;
76382;Laerm;65202;52.520;10.528;2022-11-20T13:33:33;48.52;33.94;78.56;;
76382;Laerm;65202;52.520;10.528;2022-11-20T13:36:07;41.67;33.78;66.32;;
76382;Laerm;65202;52.520;10.528;2022-11-20T13:38:46;39.53;33.81;54.23;;
76382;Laerm;65202;52.520;10.528;2022-11-20T13:41:34;40.99;34.18;57.49;;
76382;Laerm;65202;52.520;10.528;2022-11-20T13:44:25;43.78;34.74;59.74;;
76382;Laerm;65202;52.520;10.528;2022-11-20T13:46:54;46.84;34.13;64.91;;
76382;Laerm;65202;52.520;10.528;2022-11-20T13:49:37;48.36;35.98;75.02;;
76382;Laerm;65202;52.520;10.528;2022-11-20T13:53:04;48.28;34.84;80.36;;
76382;Laerm;65202;52.520;10.528;2022-11-20T13:55:54;41.88;34.46;64.96;;
76382;Laerm;65202;52.520;10.528;2022-11-20T14:01:45;37.84;33.79;49.07;;
76382;Laerm;65202;52.520;10.528;2022-11-20T14:04:18;39.25;33.30;53.09;;
76382;Laerm;65202;52.520;10.528;2022-11-20T14:06:48;38.42;34.20;47.11;;
76382;Laerm;65202;52.520;10.528;2022-11-20T14:09:33;37.61;33.33;45.50;;
76382;Laerm;65202;52.520;10.528;2022-11-20T14:12:03;41.83;34.84;68.76;;
76382;Laerm;65202;52.520;10.528;2022-11-20T14:14:33;39.04;34.44;51.35;;
76382;Laerm;65202;52.520;10.528;2022-11-20T14:17:18;44.06;33.92;60.56;;
76382;Laerm;65202;52.520;10.528;2022-11-20T14:19:48;37.79;34.64;47.47;;
76382;Laerm;65202;52.520;10.528;2022-11-20T14:22:24;38.83;34.28;59.81;;
76382;Laerm;65202;52.520;10.528;2022-11-20T14:25:20;40.43;33.72;52.10;;
76382;Laerm;65202;52.520;10.528;2022-11-20T14:27:57;47.33;34.30;60.99;;
76382;Laerm;65202;52.520;10.528;2022-11-20T14:30:36;47.71;33.43;64.64;;
76382;Laerm;65202;52.520;10.528;2022-11-20T14:33:04;40.63;33.14;53.36;;
76382;Laerm;65202;52.520;10.528;2022-11-20T14:35:42;37.82;33.61;53.03;;
76382;Laerm;65202;52.520;10.528;2022-11-20T14:38:18;41.92;34.36;58.68;;
76382;Laerm;65202;52.520;10.528;2022-11-20T14:40:47;48.02;34.92;67.56;;
76382;Laerm;65202;52.520;10.528;2022-11-20T14:43:28;39.54;34.76;54.36;;
76382;Laerm;65202;52.520;10.528;2022-11-20T14:46:00;38.52;33.77;52.13;;
76382;Laerm;65202;52.520;10.528;2022-11-20T14:48:51;43.44;33.68;61.00;;
76382;Laerm;65202;52.520;10.528;2022-11-20T14:51:37;46.07;34.61;62.13;;
76382;Laerm;65202;52.520;10.528;2022-11-20T14:54:19;37.57;33.96;44.79;;
76382;Laerm;65202;52.520;10.528;2022-11-20T14:57:02;43.25;34.08;59.17;;
76382;Laerm;65202;52.520;10.528;2022-11-20T14:59:33;46.29;33.83;64.91;;
76382;Laerm;65202;52.520;10.528;2022-11-20T15:02:06;39.56;33.92;49.95;;